Time;durP1;ratioP1;P1;durP2;ratioP2;P2;SDS_P1;SDS_P2;PMS_P1;PMS_P2;Temp;Humidity;BMP_temperature;BMP_pressure;BME280_temperature;BME280_humidity;BME280_pressure;Samples;Min_cycle;Max_cycle;Signal;HPM_P1;HPM_P2
2022/05/24 00:02:03;;;;;;;13.87;11.73;;;16.20;99.90;;;;;;4959448;28;20511;-80
2022/05/24 00:04:30;;;;;;;13.80;12.40;;;16.20;99.90;;;;;;4970151;28;20551;-79
2022/05/24 00:06:58;;;;;;;13.83;12.40;;;16.20;99.90;;;;;;4960541;28;20456;-79
2022/05/24 00:09:24;;;;;;;15.33;13.20;;;16.20;99.90;;;;;;4959772;28;20464;-79
2022/05/24 00:11:51;;;;;;;14.50;13.07;;;16.20;99.90;;;;;;4965708;28;20490;-79
2022/05/24 00:15:19;;;;;;;14.37;12.43;;;16.20;99.90;;;;;;4960199;28;20502;-79
2022/05/24 00:17:07;;;;;;;16.20;12.00;;;16.20;99.90;;;;;;4968039;28;20459;-79
2022/05/24 00:19:34;;;;;;;14.83;13.30;;;16.20;99.90;;;;;;4970332;28;20454;-80
2022/05/24 00:22:02;;;;;;;14.77;12.93;;;16.20;99.90;;;;;;4959545;28;20510;-78
2022/05/24 00:24:29;;;;;;;16.87;14.13;;;16.30;99.90;;;;;;4971057;28;20463;-79
2022/05/24 00:26:55;;;;;;;16.70;14.17;;;16.30;99.90;;;;;;4965871;28;20922;-79
2022/05/24 00:29:23;;;;;;;16.93;15.13;;;16.30;99.90;;;;;;4967182;28;20466;-79
2022/05/24 00:31:50;;;;;;;16.90;14.53;;;16.30;99.90;;;;;;4977603;28;20554;-79
2022/05/24 00:34:17;;;;;;;17.23;14.37;;;16.40;99.90;;;;;;4965380;28;20463;-78
2022/05/24 00:36:44;;;;;;;17.50;14.17;;;16.30;99.90;;;;;;4971942;28;20466;-79
2022/05/24 00:39:11;;;;;;;17.87;15.67;;;16.30;99.90;;;;;;4971510;28;20487;-78
2022/05/24 00:41:42;;;;;;;17.67;15.77;;;16.30;99.90;;;;;;4977122;28;21026;-79
2022/05/24 00:44:16;;;;;;;17.30;14.60;;;16.30;99.90;;;;;;4977676;28;20454;-79
2022/05/24 00:46:52;;;;;;;17.10;14.97;;;16.30;99.90;;;;;;4958845;28;20463;-79
2022/05/24 00:49:34;;;;;;;17.37;15.50;;;16.30;99.90;;;;;;4971104;28;20462;-77
2022/05/24 00:52:04;;;;;;;16.77;14.13;;;16.20;99.90;;;;;;4977319;28;20529;-79
2022/05/24 00:54:32;;;;;;;17.43;15.57;;;16.30;99.90;;;;;;4961209;28;20873;-79
2022/05/24 00:57:04;;;;;;;16.90;15.10;;;16.30;99.90;;;;;;4959021;28;20550;-78
2022/05/24 00:59:37;;;;;;;18.23;15.90;;;16.40;99.90;;;;;;4973892;28;20462;-79
2022/05/24 01:02:05;;;;;;;15.20;13.70;;;16.20;99.90;;;;;;4977366;28;20478;-78
2022/05/24 01:04:32;;;;;;;15.37;13.73;;;16.30;99.90;;;;;;4967378;28;20546;-79
2022/05/24 01:06:59;;;;;;;14.60;12.30;;;16.40;99.90;;;;;;4970803;28;20451;-79
2022/05/24 01:09:31;;;;;;;13.43;11.63;;;16.40;99.90;;;;;;4973516;28;20498;-80
2022/05/24 01:12:02;;;;;;;15.60;14.00;;;16.40;99.90;;;;;;4977990;28;20853;-80
2022/05/24 01:14:29;;;;;;;15.40;13.80;;;16.20;99.90;;;;;;4967112;28;20493;-79
2022/05/24 01:16:57;;;;;;;14.97;12.80;;;16.10;99.90;;;;;;4974037;28;20458;-79
2022/05/24 01:19:35;;;;;;;14.70;12.80;;;16.10;99.90;;;;;;4976429;28;20466;-79
2022/05/24 01:22:16;;;;;;;18.37;12.33;;;16.20;99.90;;;;;;4973070;28;20482;-79
2022/05/24 01:24:47;;;;;;;16.73;12.17;;;16.20;99.90;;;;;;4957820;28;20447;-80
2022/05/24 01:27:15;;;;;;;16.20;12.23;;;16.20;99.90;;;;;;4959714;28;20464;-79
2022/05/24 01:29:42;;;;;;;13.60;12.20;;;16.20;99.90;;;;;;4959236;28;20464;-79
2022/05/24 01:37:37;;;;;;;12.27;10.97;;;16.00;99.90;;;;;;4962787;28;20446;-78
2022/05/24 01:40:06;;;;;;;14.40;11.50;;;16.10;99.90;;;;;;4957482;28;20458;-79
2022/05/24 01:42:35;;;;;;;13.57;12.17;;;16.10;99.90;;;;;;4973480;28;20496;-79
2022/05/24 01:45:06;;;;;;;14.83;11.90;;;16.00;99.90;;;;;;4972860;28;20461;-79
2022/05/24 01:47:34;;;;;;;12.53;11.07;;;16.10;99.90;;;;;;4961823;28;21022;-78
2022/05/24 01:50:04;;;;;;;17.17;12.53;;;16.10;99.90;;;;;;4958482;28;22133;-79
2022/05/24 01:52:36;;;;;;;13.03;11.63;;;16.10;99.90;;;;;;4976045;28;20475;-80
2022/05/24 01:55:08;;;;;;;13.10;11.67;;;16.00;99.90;;;;;;4965407;28;20498;-80
2022/05/24 01:57:41;;;;;;;13.20;10.30;;;16.10;99.90;;;;;;4966755;28;20875;-79
2022/05/24 02:00:10;;;;;;;13.70;11.33;;;16.10;99.90;;;;;;4965816;28;20495;-78
2022/05/24 02:02:37;;;;;;;14.93;12.37;;;16.10;99.90;;;;;;4955314;28;21180;-79
2022/05/24 02:05:04;;;;;;;14.43;12.50;;;16.10;99.90;;;;;;4957034;28;20455;-78
2022/05/24 02:07:32;;;;;;;13.27;11.13;;;16.10;99.90;;;;;;4966279;28;20462;-79
2022/05/24 02:09:59;;;;;;;15.30;13.30;;;16.10;99.90;;;;;;4961025;28;20479;-78
2022/05/24 02:12:30;;;;;;;14.53;12.10;;;16.10;99.90;;;;;;4956394;28;20506;-80
2022/05/24 02:15:01;;;;;;;13.03;11.43;;;16.00;99.90;;;;;;4971426;28;20546;-79
2022/05/24 02:17:31;;;;;;;16.77;14.53;;;16.10;99.90;;;;;;4972628;28;20478;-78
2022/05/24 02:20:01;;;;;;;13.37;11.90;;;16.10;99.90;;;;;;4975364;28;20951;-80
2022/05/24 02:22:29;;;;;;;14.33;12.60;;;16.10;99.90;;;;;;4958153;28;20497;-79
2022/05/24 02:24:58;;;;;;;15.17;11.90;;;16.10;99.90;;;;;;4968602;28;20455;-78
2022/05/24 02:27:25;;;;;;;16.43;13.50;;;16.20;99.90;;;;;;4966209;28;20547;-79
2022/05/24 02:29:52;;;;;;;16.73;15.03;;;16.20;99.90;;;;;;4967573;28;20455;-78
2022/05/24 02:32:20;;;;;;;16.23;14.47;;;16.20;99.90;;;;;;4959487;28;20488;-78
2022/05/24 02:34:47;;;;;;;15.07;12.50;;;16.20;99.90;;;;;;4967009;28;20842;-79
2022/05/24 02:37:14;;;;;;;15.27;13.50;;;16.10;99.90;;;;;;4975386;28;20482;-79
2022/05/24 02:42:25;;;;;;;15.43;13.83;;;16.10;99.90;;;;;;4955176;28;20473;-78
2022/05/24 02:44:52;;;;;;;16.20;13.47;;;16.20;99.90;;;;;;4971179;28;20547;-78
2022/05/24 02:47:20;;;;;;;16.73;14.57;;;16.10;99.90;;;;;;4974639;28;20523;-79
2022/05/24 02:49:47;;;;;;;18.70;15.67;;;16.10;99.90;;;;;;4962933;28;20546;-82
2022/05/24 02:52:16;;;;;;;15.23;13.63;;;15.90;99.90;;;;;;4957140;28;20477;-79
2022/05/24 02:54:43;;;;;;;20.10;15.07;;;15.90;99.90;;;;;;4959928;28;20835;-81
2022/05/24 02:57:10;;;;;;;18.93;13.30;;;15.90;99.90;;;;;;4965013;28;20907;-81
2022/05/24 02:59:37;;;;;;;16.53;13.80;;;16.00;99.90;;;;;;4978648;28;20460;-80
2022/05/24 03:02:05;;;;;;;12.07;10.10;;;15.90;99.90;;;;;;4978816;28;20479;-80
2022/05/24 03:04:34;;;;;;;14.80;12.13;;;16.20;99.90;;;;;;4969812;28;20511;-82
2022/05/24 03:09:45;;;;;;;14.73;11.53;;;16.20;99.90;;;;;;4962628;28;20455;-81
2022/05/24 03:14:57;;;;;;;13.40;11.50;;;16.00;99.90;;;;;;4964799;28;20483;-82
2022/05/24 03:17:25;;;;;;;11.97;10.43;;;16.00;99.90;;;;;;4967868;28;20455;-82
2022/05/24 03:19:53;;;;;;;14.00;9.93;;;15.90;99.90;;;;;;4972465;28;20494;-80
2022/05/24 03:22:20;;;;;;;14.60;11.70;;;15.90;99.90;;;;;;4966601;28;20562;-81
2022/05/24 03:24:47;;;;;;;11.77;9.50;;;15.90;99.90;;;;;;4961301;28;20491;-82
2022/05/24 03:27:14;;;;;;;16.50;11.50;;;15.90;99.90;;;;;;4967180;28;21002;-82
2022/05/24 03:29:42;;;;;;;11.17;8.87;;;15.90;99.90;;;;;;4975001;28;20463;-83
2022/05/24 03:32:10;;;;;;;11.50;9.20;;;15.90;99.90;;;;;;4962491;28;20484;-80
2022/05/24 03:34:38;;;;;;;9.90;7.83;;;15.80;99.90;;;;;;4956822;28;20476;-82
2022/05/24 03:37:07;;;;;;;10.67;6.57;;;15.70;99.90;;;;;;4964631;28;20485;-80
2022/05/24 03:39:34;;;;;;;8.87;5.80;;;15.70;99.90;;;;;;4960325;28;20450;-82
2022/05/24 03:42:02;;;;;;;8.60;6.80;;;15.60;99.90;;;;;;4960728;28;20490;-82
2022/05/24 03:44:28;;;;;;;13.80;6.07;;;15.60;99.90;;;;;;4961394;28;20460;-81
2022/05/24 03:46:55;;;;;;;6.93;4.57;;;15.50;99.90;;;;;;4964528;28;20486;-83
2022/05/24 03:49:23;;;;;;;7.90;5.30;;;15.50;99.90;;;;;;4963383;28;20470;-84
2022/05/24 03:51:50;;;;;;;8.53;5.00;;;15.50;99.90;;;;;;4960225;28;20479;-82
2022/05/24 03:54:19;;;;;;;9.73;4.30;;;15.40;99.90;;;;;;4959767;29;20457;-79
2022/05/24 03:59:26;;;;;;;4.40;3.43;;;15.30;99.90;;;;;;4954704;28;20459;-82
2022/05/24 04:01:53;;;;;;;9.43;4.10;;;15.30;99.90;;;;;;4966634;28;20568;-81
2022/05/24 04:04:20;;;;;;;10.00;3.87;;;15.20;99.90;;;;;;4955407;28;20465;-81
2022/05/24 04:06:47;;;;;;;12.37;3.80;;;15.30;99.90;;;;;;4958012;29;20816;-81
2022/05/24 04:09:14;;;;;;;4.80;3.03;;;15.30;99.90;;;;;;4963901;28;20506;-81
2022/05/24 04:11:43;;;;;;;7.73;4.10;;;15.40;99.90;;;;;;4955415;28;20464;-83
2022/05/24 04:14:10;;;;;;;6.03;4.20;;;15.30;99.90;;;;;;4958894;28;20463;-81
2022/05/24 04:16:37;;;;;;;11.67;4.50;;;15.30;99.90;;;;;;4957945;28;21004;-81
2022/05/24 04:19:08;;;;;;;9.37;4.07;;;15.30;99.90;;;;;;4965654;28;20469;-81
2022/05/24 04:21:34;;;;;;;4.90;3.47;;;15.20;99.90;;;;;;4944692;28;20505;-83
2022/05/24 04:24:01;;;;;;;7.03;3.80;;;15.20;99.90;;;;;;4952803;28;20493;-82
2022/05/24 04:26:28;;;;;;;6.40;4.10;;;15.20;99.90;;;;;;4962093;28;20448;-81
2022/05/24 04:28:57;;;;;;;5.17;3.83;;;15.10;99.90;;;;;;4966069;28;20452;-82
2022/05/24 04:31:24;;;;;;;6.10;3.80;;;15.10;99.90;;;;;;4959916;28;20477;-82
2022/05/24 04:33:51;;;;;;;6.00;3.90;;;15.20;99.90;;;;;;4968662;28;20483;-81
2022/05/24 04:36:18;;;;;;;9.60;3.90;;;15.30;99.90;;;;;;4960685;28;20502;-82
2022/05/24 04:38:45;;;;;;;8.00;3.83;;;15.40;99.90;;;;;;4980483;28;20838;-82
2022/05/24 04:43:57;;;;;;;6.50;3.60;;;15.40;99.90;;;;;;4959859;29;20441;-83
2022/05/24 04:46:24;;;;;;;5.57;3.70;;;15.50;99.90;;;;;;4959413;28;20481;-82
2022/05/24 04:48:51;;;;;;;4.17;3.50;;;15.50;99.90;;;;;;4959520;28;20974;-82
2022/05/24 04:51:18;;;;;;;8.10;3.80;;;15.60;99.90;;;;;;4953831;28;20478;-82
2022/05/24 04:53:45;;;;;;;6.93;3.33;;;15.50;99.90;;;;;;4955002;28;20905;-82
2022/05/24 04:56:12;;;;;;;8.07;4.10;;;15.70;99.90;;;;;;4958247;29;20490;-82
2022/05/24 04:58:39;;;;;;;9.43;3.57;;;15.70;99.90;;;;;;4972813;28;20490;-83
2022/05/24 05:01:07;;;;;;;7.53;3.10;;;15.80;99.90;;;;;;4979612;28;20454;-82
2022/05/24 05:03:35;;;;;;;5.53;3.67;;;15.70;99.90;;;;;;4978010;28;21007;-81
2022/05/24 05:08:29;;;;;;;8.00;3.60;;;15.60;99.90;;;;;;5034119;28;20508;-80
2022/05/24 05:10:56;;;;;;;5.37;3.27;;;15.60;99.90;;;;;;5038221;28;20449;-79
2022/05/24 05:13:23;;;;;;;6.90;4.00;;;15.60;99.90;;;;;;5041531;28;20462;-79
2022/05/24 05:15:50;;;;;;;7.63;4.10;;;15.50;99.90;;;;;;5043642;28;20517;-81
2022/05/24 05:18:18;;;;;;;6.30;3.80;;;15.50;99.90;;;;;;5037235;28;20512;-80
2022/05/24 05:20:45;;;;;;;6.40;3.60;;;15.60;99.90;;;;;;5039504;28;20828;-79
2022/05/24 05:23:15;;;;;;;6.40;3.60;;;15.50;99.90;;;;;;5039528;28;20903;-80
2022/05/24 05:25:43;;;;;;;5.37;2.83;;;15.50;99.90;;;;;;5039960;28;20457;-81
2022/05/24 05:28:10;;;;;;;7.33;4.00;;;15.50;99.90;;;;;;5040561;28;20479;-80
2022/05/24 05:33:22;;;;;;;10.70;4.00;;;15.40;99.90;;;;;;5036689;28;20435;-79
2022/05/24 05:35:50;;;;;;;7.63;3.97;;;15.20;99.90;;;;;;5039102;28;21044;-80
2022/05/24 05:38:18;;;;;;;5.70;3.43;;;15.10;99.90;;;;;;5039344;28;20540;-80
2022/05/24 05:40:45;;;;;;;5.10;3.33;;;15.10;99.90;;;;;;5037235;28;20447;-80
2022/05/24 05:43:12;;;;;;;7.90;3.67;;;15.10;99.90;;;;;;5039298;28;21029;-81
2022/05/24 05:45:39;;;;;;;6.40;3.90;;;15.00;99.90;;;;;;5039446;28;20464;-81
2022/05/24 05:48:07;;;;;;;5.40;3.30;;;14.90;99.90;;;;;;5038914;28;20857;-81
2022/05/24 05:50:35;;;;;;;9.33;4.07;;;14.90;99.90;;;;;;5038370;28;20493;-81
2022/05/24 05:53:04;;;;;;;5.73;3.67;;;14.90;99.90;;;;;;5055311;28;20541;-79
2022/05/24 05:55:30;;;;;;;6.40;3.30;;;14.80;99.90;;;;;;5058884;28;20504;-80
2022/05/24 05:57:58;;;;;;;4.27;2.93;;;14.80;99.90;;;;;;5051153;28;20945;-81
2022/05/24 06:00:26;;;;;;;9.40;3.30;;;14.70;99.90;;;;;;5038076;28;20454;-79
2022/05/24 06:02:52;;;;;;;8.40;3.33;;;14.70;99.90;;;;;;5039054;28;20458;-80
2022/05/24 06:05:19;;;;;;;8.00;3.20;;;14.60;99.90;;;;;;5039569;28;20716;-79
2022/05/24 06:07:47;;;;;;;8.27;4.10;;;14.60;99.90;;;;;;5039405;28;20476;-79
2022/05/24 06:10:15;;;;;;;6.57;3.40;;;14.60;99.90;;;;;;5038231;28;20458;-81
2022/05/24 06:12:42;;;;;;;4.53;2.90;;;14.70;99.90;;;;;;5051885;28;20523;-81
2022/05/24 06:15:10;;;;;;;7.00;3.67;;;14.60;99.90;;;;;;5055813;28;20505;-80
2022/05/24 06:17:44;;;;;;;9.07;3.40;;;14.50;99.90;;;;;;5041014;28;20862;-80
2022/05/24 06:20:11;;;;;;;7.30;3.03;;;14.50;99.90;;;;;;5018333;28;20470;-80
2022/05/24 06:22:38;;;;;;;6.70;3.30;;;14.40;99.90;;;;;;5038827;28;20486;-80
2022/05/24 06:25:07;;;;;;;8.30;3.67;;;14.40;99.90;;;;;;5059785;28;20481;-81
2022/05/24 06:27:34;;;;;;;12.87;3.30;;;14.20;99.90;;;;;;5055028;28;21244;-80
2022/05/24 06:30:00;;;;;;;5.47;2.80;;;14.20;99.90;;;;;;5040773;28;20462;-80
2022/05/24 06:32:27;;;;;;;6.67;3.33;;;14.30;99.90;;;;;;5040887;28;20539;-81
2022/05/24 06:34:54;;;;;;;5.70;2.37;;;14.30;99.90;;;;;;5039165;28;20459;-82
2022/05/24 06:37:21;;;;;;;7.57;2.87;;;14.30;99.90;;;;;;5040102;28;20483;-80
2022/05/24 06:39:49;;;;;;;13.13;3.10;;;14.30;99.90;;;;;;5039142;28;20529;-79
2022/05/24 06:42:17;;;;;;;7.07;2.90;;;14.40;99.90;;;;;;5037985;28;20877;-81
2022/05/24 06:44:44;;;;;;;5.87;2.40;;;14.40;99.90;;;;;;5036944;28;20545;-80
2022/05/24 06:47:10;;;;;;;9.50;2.40;;;14.40;99.90;;;;;;5037215;28;20469;-81
2022/05/24 06:49:37;;;;;;;7.23;2.40;;;14.40;99.90;;;;;;5038688;28;20485;-81
2022/05/24 06:52:05;;;;;;;6.90;2.33;;;14.30;99.90;;;;;;5036849;28;20452;-80
2022/05/24 06:54:32;;;;;;;5.60;2.20;;;14.30;99.90;;;;;;5037487;28;20456;-80
2022/05/24 06:56:59;;;;;;;6.60;2.30;;;14.20;99.90;;;;;;5041200;28;21017;-79
2022/05/24 07:02:26;;;;;;;5.37;2.67;;;14.10;99.90;;;;;;5057537;28;20435;-81
2022/05/24 07:04:57;;;;;;;5.83;2.20;;;14.10;99.90;;;;;;5045410;28;20469;-79
2022/05/24 07:07:25;;;;;;;3.57;2.07;;;14.00;99.90;;;;;;5038697;28;20477;-81
2022/05/24 07:09:52;;;;;;;5.77;2.27;;;14.00;99.90;;;;;;5035873;28;20461;-82
2022/05/24 07:12:19;;;;;;;5.47;2.40;;;14.10;99.90;;;;;;5035459;28;20470;-80
2022/05/24 07:14:48;;;;;;;3.57;2.20;;;14.10;99.90;;;;;;5030835;28;20451;-80
2022/05/24 07:17:15;;;;;;;4.63;2.30;;;14.20;99.90;;;;;;5043791;28;20499;-81
2022/05/24 07:19:42;;;;;;;7.03;2.03;;;14.20;99.90;;;;;;5027199;28;20464;-78
2022/05/24 07:22:09;;;;;;;6.47;3.37;;;14.30;99.90;;;;;;5035345;28;20451;-79
2022/05/24 07:24:36;;;;;;;6.20;2.20;;;14.40;99.90;;;;;;5037960;28;20458;-78
2022/05/24 07:27:07;;;;;;;5.03;2.83;;;14.50;99.90;;;;;;5035175;28;20479;-78
2022/05/24 07:29:34;;;;;;;4.40;1.80;;;14.60;99.90;;;;;;5037488;28;20474;-78
2022/05/24 07:32:02;;;;;;;4.23;1.90;;;14.60;99.90;;;;;;5035858;28;20514;-79
2022/05/24 07:34:29;;;;;;;8.67;2.27;;;14.70;99.90;;;;;;5033656;28;20514;-80
2022/05/24 07:36:57;;;;;;;6.70;2.20;;;14.70;99.90;;;;;;5035600;28;20536;-78
2022/05/24 07:39:24;;;;;;;5.90;2.40;;;14.80;99.90;;;;;;5036584;28;20525;-78
2022/05/24 07:47:32;;;;;;;6.70;2.17;;;15.20;99.90;;;;;;5040246;28;20465;-78
2022/05/24 07:50:00;;;;;;;4.07;1.70;;;15.20;99.90;;;;;;5053415;28;20534;-81
2022/05/24 07:52:27;;;;;;;4.17;2.10;;;15.30;99.90;;;;;;5056619;28;20454;-79
2022/05/24 07:54:54;;;;;;;8.90;2.03;;;15.40;99.90;;;;;;5032608;28;20465;-79
2022/05/24 07:57:21;;;;;;;4.10;1.67;;;15.40;99.90;;;;;;5038860;28;20503;-79
2022/05/24 07:59:48;;;;;;;11.50;2.30;;;15.40;99.90;;;;;;5034010;28;20468;-78
2022/05/24 08:02:16;;;;;;;4.27;1.50;;;15.40;99.90;;;;;;5035554;28;20460;-77
2022/05/24 08:04:45;;;;;;;4.70;1.83;;;15.60;99.90;;;;;;5037809;28;20892;-78
2022/05/24 08:07:12;;;;;;;6.40;2.77;;;15.80;99.90;;;;;;5039179;28;20480;-79
2022/05/24 08:09:40;;;;;;;5.20;1.70;;;16.10;99.90;;;;;;5031502;28;20449;-79
2022/05/24 08:12:07;;;;;;;3.07;1.43;;;16.50;99.90;;;;;;5033750;28;20445;-79
2022/05/24 08:14:34;;;;;;;3.50;1.80;;;16.80;99.90;;;;;;5035760;28;20437;-79
2022/05/24 08:17:01;;;;;;;4.20;1.80;;;17.10;99.90;;;;;;5043144;28;20495;-79
2022/05/24 08:19:28;;;;;;;3.00;1.33;;;17.40;99.90;;;;;;5043309;28;20464;-78
2022/05/24 08:21:58;;;;;;;5.28;2.50;;;17.70;99.90;;;;;;5035719;28;20444;-78
2022/05/24 08:24:25;;;;;;;3.70;1.53;;;17.80;99.90;;;;;;5037048;28;20297;-78
2022/05/24 08:26:52;;;;;;;3.60;1.27;;;17.80;99.90;;;;;;5038794;28;20473;-78
2022/05/24 08:29:18;;;;;;;5.47;1.87;;;17.90;99.90;;;;;;5036177;28;20858;-78
2022/05/24 08:31:45;;;;;;;4.80;1.87;;;17.80;99.90;;;;;;5036285;28;20457;-78
2022/05/24 08:34:14;;;;;;;4.00;1.77;;;17.80;99.90;;;;;;5038210;28;20448;-79
2022/05/24 08:36:41;;;;;;;3.00;1.63;;;17.90;99.90;;;;;;5034037;28;20992;-77
2022/05/24 08:39:09;;;;;;;4.93;1.57;;;17.90;99.90;;;;;;5038773;28;20460;-80
2022/05/24 08:41:50;;;;;;;2.80;1.30;;;18.00;99.90;;;;;;5035466;28;20462;-77
2022/05/24 08:49:58;;;;;;;2.63;1.20;;;17.90;99.90;;;;;;5035367;28;21011;-78
2022/05/24 08:52:29;;;;;;;2.93;1.30;;;18.30;99.90;;;;;;5035482;28;20466;-77
2022/05/24 08:54:59;;;;;;;5.00;2.10;;;18.60;99.90;;;;;;5035405;28;20540;-77
2022/05/24 08:57:37;;;;;;;4.20;1.60;;;18.60;99.90;;;;;;5037857;28;20932;-80
2022/05/24 09:00:08;;;;;;;4.87;2.00;;;18.70;99.90;;;;;;5032858;28;20453;-77
2022/05/24 09:02:36;;;;;;;3.47;1.70;;;18.90;99.90;;;;;;5036327;28;20461;-78
2022/05/24 09:05:03;;;;;;;7.27;1.67;;;19.10;99.90;;;;;;5036136;28;20512;-78
2022/05/24 09:07:39;;;;;;;5.63;1.80;;;19.20;99.90;;;;;;5034470;28;20548;-77
2022/05/24 09:10:10;;;;;;;4.50;1.70;;;19.30;99.90;;;;;;5029837;28;20459;-77
2022/05/24 09:12:57;;;;;;;4.13;1.40;;;19.50;99.90;;;;;;5033378;28;20443;-81
2022/05/24 09:15:31;;;;;;;3.23;1.50;;;19.10;99.90;;;;;;5026150;28;20466;-80
2022/05/24 09:18:12;;;;;;;5.27;1.70;;;18.70;99.90;;;;;;5036307;28;20491;-79
2022/05/24 09:20:40;;;;;;;4.43;1.67;;;18.30;99.90;;;;;;5027297;28;20454;-79
2022/05/24 09:23:12;;;;;;;4.20;1.60;;;17.90;99.90;;;;;;5035823;28;20480;-79
2022/05/24 09:25:53;;;;;;;4.30;2.03;;;17.60;99.90;;;;;;5031730;28;20990;-79
2022/05/24 09:28:20;;;;;;;4.30;1.77;;;17.20;99.90;;;;;;5034599;28;20471;-80
2022/05/24 09:30:47;;;;;;;3.70;1.97;;;17.20;99.90;;;;;;5034541;28;20458;-80
2022/05/24 09:33:23;;;;;;;6.73;2.03;;;17.20;99.90;;;;;;5034197;28;20556;-79
2022/05/24 09:35:54;;;;;;;4.50;1.80;;;17.20;99.90;;;;;;5035545;28;20441;-79
2022/05/24 09:38:22;;;;;;;3.77;1.70;;;17.20;99.90;;;;;;5031124;28;20868;-79
2022/05/24 09:40:58;;;;;;;5.10;1.97;;;17.20;99.90;;;;;;5034662;28;20552;-80
2022/05/24 09:43:29;;;;;;;6.50;2.23;;;17.30;99.90;;;;;;5030779;28;20471;-80
2022/05/24 09:46:03;;;;;;;3.13;1.63;;;17.40;99.90;;;;;;5015627;28;20461;-79
2022/05/24 09:48:32;;;;;;;4.23;1.57;;;17.40;99.90;;;;;;5036610;28;20455;-80
2022/05/24 09:51:01;;;;;;;3.13;1.83;;;17.30;99.90;;;;;;5036248;28;20519;-79
2022/05/24 09:53:31;;;;;;;3.50;1.47;;;17.30;99.90;;;;;;5036645;28;20510;-79
2022/05/24 09:56:02;;;;;;;3.10;1.40;;;17.40;99.90;;;;;;5032487;28;20467;-77
2022/05/24 09:58:33;;;;;;;3.60;1.83;;;17.40;99.90;;;;;;5031776;28;20580;-77
2022/05/24 10:01:02;;;;;;;7.67;1.70;;;17.30;99.90;;;;;;5031571;28;20881;-77
2022/05/24 10:03:33;;;;;;;5.37;1.87;;;17.20;99.90;;;;;;5030540;28;20460;-78
2022/05/24 10:06:21;;;;;;;6.00;1.60;;;17.00;99.90;;;;;;5032408;28;20902;-78
2022/05/24 10:08:52;;;;;;;5.60;1.30;;;16.90;99.90;;;;;;5032748;28;20440;-78
2022/05/24 10:11:26;;;;;;;4.27;1.50;;;16.90;99.90;;;;;;5030482;28;20449;-78
2022/05/24 10:14:04;;;;;;;5.83;1.30;;;17.10;99.90;;;;;;5027667;28;20444;-77
2022/05/24 10:16:36;;;;;;;2.67;1.20;;;17.30;99.90;;;;;;5029289;28;20483;-78
2022/05/24 10:19:29;;;;;;;2.70;1.10;;;17.40;99.90;;;;;;5028322;28;20493;-77
2022/05/24 10:22:04;;;;;;;2.87;0.93;;;17.60;99.90;;;;;;5024440;28;20457;-78
2022/05/24 10:24:44;;;;;;;3.87;1.30;;;18.30;99.90;;;;;;5017132;28;20465;-77
2022/05/24 10:27:24;;;;;;;5.37;1.27;;;19.70;99.90;;;;;;5031460;28;21024;-77
2022/05/24 10:29:55;;;;;;;5.63;1.37;;;21.30;99.90;;;;;;5034355;28;20456;-78
2022/05/24 10:38:24;;;;;;;3.10;1.10;;;24.60;99.90;;;;;;5030472;28;21134;-77
2022/05/24 10:41:04;;;;;;;4.87;1.43;;;25.60;99.90;;;;;;5029198;28;20476;-77
2022/05/24 10:43:49;;;;;;;2.60;1.00;;;25.30;99.90;;;;;;5012481;28;20453;-77
2022/05/24 10:46:20;;;;;;;3.80;1.00;;;24.70;99.90;;;;;;5030606;28;20532;-78
2022/05/24 10:48:57;;;;;;;2.30;1.10;;;25.20;99.90;;;;;;5032708;28;20508;-77
2022/05/24 10:51:30;;;;;;;3.10;1.00;;;25.90;99.90;;;;;;5021693;28;20464;-78
2022/05/24 10:54:01;;;;;;;4.00;1.00;;;26.50;99.90;;;;;;5033565;28;20449;-78
2022/05/24 10:56:36;;;;;;;2.80;1.20;;;26.50;99.90;;;;;;5031251;28;20471;-77
2022/05/24 10:59:16;;;;;;;4.50;1.00;;;24.90;99.90;;;;;;5033296;28;20500;-77
2022/05/24 11:01:50;;;;;;;2.77;1.10;;;23.50;99.90;;;;;;5031965;28;20510;-77
2022/05/24 11:04:22;;;;;;;4.73;1.20;;;22.80;99.90;;;;;;5032582;28;20542;-77
2022/05/24 11:06:58;;;;;;;3.00;1.13;;;22.60;99.90;;;;;;5032997;28;20489;-77
2022/05/24 11:09:26;;;;;;;4.17;1.30;;;22.90;99.90;;;;;;5033654;28;20508;-78
2022/05/24 11:11:58;;;;;;;4.10;1.20;;;23.30;99.90;;;;;;5032324;28;20944;-78
2022/05/24 11:14:37;;;;;;;3.27;1.23;;;24.50;99.90;;;;;;5033008;28;20475;-79
2022/05/24 11:17:05;;;;;;;4.00;1.30;;;25.70;99.90;;;;;;5033957;28;20846;-79
2022/05/24 11:19:36;;;;;;;2.60;0.93;;;26.60;99.90;;;;;;5031568;28;20572;-78
2022/05/24 11:22:10;;;;;;;1.90;0.97;;;27.30;99.90;;;;;;5032440;28;20551;-79
2022/05/24 11:24:43;;;;;;;2.83;1.00;;;27.80;99.90;;;;;;5032580;28;20453;-80
2022/05/24 11:27:14;;;;;;;6.30;1.00;;;26.50;99.90;;;;;;5033601;28;20461;-78
2022/05/24 11:29:48;;;;;;;3.70;1.30;;;25.00;99.80;;;;;;5034525;28;20524;-79
2022/05/24 11:32:30;;;;;;;2.30;1.10;;;23.70;99.90;;;;;;5035533;28;20451;-79
2022/05/24 11:35:00;;;;;;;2.53;1.10;;;22.60;99.90;;;;;;5036281;28;20479;-78
2022/05/24 11:37:30;;;;;;;2.47;1.00;;;22.20;99.90;;;;;;5036687;28;20483;-79
2022/05/24 11:39:57;;;;;;;3.57;0.90;;;21.80;99.90;;;;;;5038191;28;20457;-79
2022/05/24 11:42:42;;;;;;;2.43;1.00;;;22.00;99.90;;;;;;5034578;28;20491;-79
2022/05/24 11:45:55;;;;;;;3.10;0.80;;;22.70;99.90;;;;;;5045129;28;20989;-79
2022/05/24 11:48:45;;;;;;;3.33;1.00;;;23.70;99.90;;;;;;5016765;28;20457;-78
2022/05/24 11:51:39;;;;;;;2.67;1.10;;;25.90;99.90;;;;;;5032312;28;21188;-78
2022/05/24 11:54:29;;;;;;;2.87;1.20;;;25.80;99.40;;;;;;5037741;28;20456;-78
2022/05/24 11:57:17;;;;;;;4.80;1.60;;;27.30;99.90;;;;;;5036025;28;20475;-78
2022/05/24 11:59:52;;;;;;;2.10;0.90;;;29.10;93.40;;;;;;5037090;28;20484;-79
2022/05/24 12:08:36;;;;;;;3.40;1.00;;;29.80;88.70;;;;;;5038092;28;20968;-79
2022/05/24 12:11:32;;;;;;;2.77;1.10;;;29.30;89.20;;;;;;5036400;28;20445;-78
2022/05/24 12:14:19;;;;;;;6.00;1.40;;;29.10;81.70;;;;;;5039765;22;20497;-85
2022/05/24 12:17:09;;;;;;;6.07;1.13;;;28.80;81.40;;;;;;5003327;28;20454;-87
2022/05/24 12:19:47;;;;;;;5.83;1.60;;;28.10;83.70;;;;;;5004711;28;20478;-86
2022/05/24 12:22:17;;;;;;;2.80;1.13;;;26.90;83.10;;;;;;5022924;28;20945;-83
2022/05/24 12:24:54;;;;;;;3.00;1.33;;;25.80;84.10;;;;;;5008037;28;20490;-86
2022/05/24 12:27:37;;;;;;;2.20;1.00;;;25.30;85.10;;;;;;4999379;28;20458;-85
2022/05/24 12:30:21;;;;;;;2.87;0.90;;;24.60;87.50;;;;;;4994787;28;20517;-83
2022/05/24 12:32:48;;;;;;;2.20;1.10;;;24.00;87.90;;;;;;5007552;28;20554;-84
2022/05/24 12:35:17;;;;;;;3.00;1.03;;;23.30;88.50;;;;;;5010166;28;20502;-83
2022/05/24 12:37:50;;;;;;;2.80;1.07;;;22.50;90.10;;;;;;5004654;28;21036;-84
2022/05/24 12:40:20;;;;;;;2.50;1.20;;;22.00;92.60;;;;;;5005150;28;20912;-84
2022/05/24 12:42:50;;;;;;;5.90;1.07;;;21.70;94.80;;;;;;5006320;28;20614;-83
2022/05/24 12:45:22;;;;;;;2.50;0.90;;;21.30;99.90;;;;;;5000516;28;20459;-82
2022/05/24 12:47:52;;;;;;;5.90;0.87;;;21.10;99.90;;;;;;5000395;28;20459;-83
2022/05/24 12:50:31;;;;;;;2.30;0.90;;;21.20;99.90;;;;;;4999704;28;20486;-80
2022/05/24 12:53:03;;;;;;;2.20;1.13;;;21.40;99.90;;;;;;4988816;28;20479;-83
2022/05/24 12:58:26;;;;;;;2.87;1.10;;;21.80;99.90;;;;;;5000698;28;20493;-82
2022/05/24 13:01:06;;;;;;;4.33;1.13;;;21.80;99.90;;;;;;5004535;28;20485;-82
2022/05/24 13:03:34;;;;;;;2.30;0.90;;;21.80;99.90;;;;;;5003950;28;20548;-82
2022/05/24 13:06:00;;;;;;;3.30;1.00;;;21.50;99.90;;;;;;5002986;28;21001;-82
2022/05/24 13:08:29;;;;;;;4.47;1.10;;;21.30;99.90;;;;;;5005656;28;20882;-82
2022/05/24 13:10:57;;;;;;;5.23;2.60;;;21.20;99.90;;;;;;5000393;28;20526;-84
2022/05/24 13:13:25;;;;;;;4.00;1.00;;;21.50;99.90;;;;;;5000230;28;20949;-84
2022/05/24 13:15:54;;;;;;;2.37;0.80;;;21.40;99.90;;;;;;5000524;28;20446;-83
2022/05/24 13:18:23;;;;;;;3.87;1.30;;;21.40;99.90;;;;;;5000058;28;20478;-82
2022/05/24 13:20:52;;;;;;;3.50;1.13;;;21.60;99.90;;;;;;4997670;28;20538;-81
2022/05/24 13:23:25;;;;;;;4.00;0.90;;;22.00;99.90;;;;;;4999103;28;20505;-84
2022/05/24 13:25:56;;;;;;;5.30;1.37;;;23.70;99.90;;;;;;4999522;28;20546;-81
2022/05/24 13:28:42;;;;;;;2.93;0.90;;;24.30;99.90;;;;;;4999766;28;20590;-82
2022/05/24 13:33:59;;;;;;;6.37;1.17;;;24.40;99.90;;;;;;4997819;28;20469;-83
2022/05/24 13:36:29;;;;;;;2.30;0.80;;;24.40;99.90;;;;;;5003675;28;20442;-85
2022/05/24 13:39:24;;;;;;;2.23;0.87;;;26.30;99.90;;;;;;5005273;28;20997;-83
2022/05/24 13:42:02;;;;;;;2.73;0.83;;;29.90;99.90;;;;;;4967069;28;20451;-85
2022/05/24 13:44:31;;;;;;;2.73;0.90;;;32.10;94.30;;;;;;5020941;28;20939;-83
2022/05/24 13:47:03;;;;;;;2.33;0.80;;;32.80;80.80;;;;;;5006933;28;20470;-83
2022/05/24 13:49:36;;;;;;;2.67;0.83;;;34.20;74.80;;;;;;5000612;28;20449;-83
2022/05/24 13:52:27;;;;;;;3.03;1.40;;;34.50;64.70;;;;;;4999986;28;20443;-83
2022/05/24 13:55:13;;;;;;;1.97;0.87;;;33.00;62.30;;;;;;4993258;28;20463;-80